createdAt,value
2022-11-16T00:02:12.742Z,100837.63
2022-11-16T00:04:42.992Z,100837.81
2022-11-16T00:07:11.710Z,100844.53
2022-11-16T00:09:39.906Z,100833.22
2022-11-16T00:12:09.638Z,100822.88
2022-11-16T00:14:37.825Z,100825.34
2022-11-16T00:17:05.962Z,100824.50
2022-11-16T00:19:34.204Z,100825.53
2022-11-16T00:22:03.690Z,100827.97
2022-11-16T00:24:31.866Z,100831.56
2022-11-16T00:27:00.029Z,100831.41
2022-11-16T00:29:28.669Z,100834.06
2022-11-16T00:31:56.924Z,100822.88
2022-11-16T00:34:25.858Z,100817.63
2022-11-16T00:36:54.115Z,100814.84
2022-11-16T00:39:23.884Z,100815.03
2022-11-16T00:41:52.193Z,100809.03
2022-11-16T00:44:20.546Z,100820.41
2022-11-16T00:46:48.879Z,100812.56
2022-11-16T00:49:17.815Z,100818.47
2022-11-16T00:51:46.294Z,100820.94
2022-11-16T00:54:14.548Z,100825.41
2022-11-16T00:56:43.996Z,100829.75
2022-11-16T00:59:13.008Z,100825.47
2022-11-16T01:01:43.306Z,100835.91
2022-11-16T01:04:11.459Z,100836.84
2022-11-16T01:06:39.584Z,100840.38
2022-11-16T01:09:07.744Z,100846.28
2022-11-16T01:11:53.367Z,100840.91
2022-11-16T01:14:22.903Z,100845.50
2022-11-16T01:16:51.394Z,100827.94
2022-11-16T01:19:21.508Z,100843.56
2022-11-16T01:21:49.668Z,100832.91
2022-11-16T01:24:17.791Z,100834.69
2022-11-16T01:26:46.023Z,100819.88
2022-11-16T01:29:14.296Z,100829.31
2022-11-16T01:31:47.961Z,100823.97
2022-11-16T01:34:16.169Z,100825.59
2022-11-16T01:36:44.350Z,100810.19
2022-11-16T01:39:13.874Z,100805.81
2022-11-16T01:41:55.104Z,100807.34
2022-11-16T01:45:02.370Z,100804.88
2022-11-16T01:47:32.218Z,100809.81
2022-11-16T01:50:07.162Z,100809.81
2022-11-16T01:52:40.958Z,100811.56
2022-11-16T01:55:09.841Z,100816.91
2022-11-16T01:57:50.432Z,100811.25
2022-11-16T02:00:19.307Z,100822.69
2022-11-16T02:03:01.981Z,100820.00
2022-11-16T02:06:03.737Z,100817.94
2022-11-16T02:09:14.134Z,100823.50
2022-11-16T02:12:03.694Z,100816.25
2022-11-16T02:14:45.520Z,100818.22
2022-11-16T02:17:25.370Z,100817.22
2022-11-16T02:20:25.342Z,100812.69
2022-11-16T02:23:13.682Z,100814.38
2022-11-16T02:25:54.909Z,100808.72
2022-11-16T02:28:34.301Z,100804.75
2022-11-16T02:31:08.040Z,100806.50
2022-11-16T02:33:39.997Z,100805.72
2022-11-16T02:36:13.256Z,100807.25
2022-11-16T02:38:48.830Z,100805.28
2022-11-16T02:41:22.564Z,100811.41
2022-11-16T02:43:56.410Z,100809.03
2022-11-16T02:46:32.042Z,100795.81
2022-11-16T02:49:04.096Z,100791.44
2022-11-16T02:51:35.561Z,100786.94
2022-11-16T02:54:05.847Z,100785.84
2022-11-16T02:56:43.615Z,100783.31
2022-11-16T02:59:16.579Z,100791.03
2022-11-16T03:01:53.064Z,100789.16
2022-11-16T03:04:27.918Z,100778.91
2022-11-16T03:06:58.731Z,100782.09
2022-11-16T03:09:31.824Z,100777.78
2022-11-16T03:12:03.264Z,100775.28
2022-11-16T03:14:39.774Z,100765.41
2022-11-16T03:17:15.078Z,100769.75
2022-11-16T03:19:50.057Z,100776.66
2022-11-16T03:22:25.684Z,100785.41
2022-11-16T03:24:54.406Z,100793.19
2022-11-16T03:27:31.040Z,100799.38
2022-11-16T03:30:05.804Z,100800.16
2022-11-16T03:32:44.518Z,100807.72
2022-11-16T03:35:18.852Z,100807.94
2022-11-16T03:37:51.435Z,100805.09
2022-11-16T03:40:21.150Z,100805.78
2022-11-16T03:42:51.510Z,100805.81
2022-11-16T03:45:20.919Z,100810.00
2022-11-16T03:47:52.799Z,100810.28
2022-11-16T03:50:22.306Z,100796.84
2022-11-16T03:52:50.519Z,100798.69
2022-11-16T03:55:19.784Z,100797.69
2022-11-16T03:57:48.180Z,100799.22
2022-11-16T04:00:17.080Z,100793.06
2022-11-16T04:02:45.958Z,100799.22
2022-11-16T04:05:40.367Z,100784.25
2022-11-16T04:08:33.625Z,100800.91
2022-11-16T04:11:19.710Z,100790.31
2022-11-16T04:14:09.238Z,100805.19
2022-11-16T04:16:56.752Z,100794.41
2022-11-16T04:19:43.025Z,100803.47
2022-11-16T04:22:34.648Z,100791.91
2022-11-16T04:25:07.626Z,100794.59
2022-11-16T04:27:54.685Z,100813.63
2022-11-16T04:30:23.099Z,100809.31
2022-11-16T04:33:09.393Z,100799.94
2022-11-16T04:35:55.065Z,100799.69
2022-11-16T04:38:24.646Z,100800.59
2022-11-16T04:40:52.852Z,100788.34
2022-11-16T04:43:20.910Z,100794.19
2022-11-16T04:46:06.712Z,100789.16
2022-11-16T04:48:40.455Z,100803.28
2022-11-16T04:51:10.050Z,100796.09
2022-11-16T04:53:40.999Z,100792.47
2022-11-16T04:56:17.338Z,100787.44
2022-11-16T04:58:45.870Z,100789.16
2022-11-16T05:01:14.774Z,100779.72
2022-11-16T05:03:43.705Z,100776.91
2022-11-16T05:06:11.991Z,100771.53
2022-11-16T05:08:41.695Z,100765.59
2022-11-16T05:11:11.327Z,100771.16
2022-11-16T05:13:39.451Z,100769.03
2022-11-16T05:16:09.344Z,100767.19
2022-11-16T05:18:37.479Z,100753.91
2022-11-16T05:21:05.879Z,100757.34
2022-11-16T05:23:55.872Z,100748.88
2022-11-16T05:26:28.012Z,100750.63
2022-11-16T05:28:56.655Z,100749.31
2022-11-16T05:31:24.778Z,100753.91
2022-11-16T05:33:53.867Z,100750.47
2022-11-16T05:36:23.565Z,100752.94
2022-11-16T05:38:56.057Z,100747.38
2022-11-16T05:41:28.446Z,100738.72
2022-11-16T05:44:00.280Z,100740.47
2022-11-16T05:46:28.396Z,100734.59
2022-11-16T05:48:59.659Z,100739.59
2022-11-16T05:51:28.008Z,100739.78
2022-11-16T05:53:57.324Z,100737.09
2022-11-16T05:56:26.238Z,100738.03
2022-11-16T05:58:57.619Z,100750.25
2022-11-16T06:01:27.111Z,100757.22
2022-11-16T06:03:55.271Z,100759.75
2022-11-16T06:06:23.422Z,100755.38
2022-11-16T06:08:53.083Z,100767.59
2022-11-16T06:11:26.488Z,100759.69
2022-11-16T06:13:57.764Z,100773.00
2022-11-16T06:16:25.962Z,100764.94
2022-11-16T06:18:54.140Z,100759.78
2022-11-16T06:21:22.344Z,100764.19
2022-11-16T06:23:50.526Z,100768.53
2022-11-16T06:26:19.066Z,100764.19
2022-11-16T06:28:48.282Z,100761.34
2022-11-16T06:31:17.772Z,100772.75
2022-11-16T06:33:46.716Z,100756.19
2022-11-16T06:36:22.644Z,100762.47
2022-11-16T06:38:51.301Z,100769.47
2022-11-16T06:41:21.408Z,100768.47
2022-11-16T06:43:51.595Z,100765.09
2022-11-16T06:46:25.301Z,100768.78
2022-11-16T06:48:54.365Z,100762.59
2022-11-16T06:51:23.264Z,100758.94
2022-11-16T06:53:51.665Z,100763.34
2022-11-16T06:56:21.397Z,100772.03
2022-11-16T06:58:56.676Z,100772.03
2022-11-16T07:01:27.920Z,100782.50
2022-11-16T07:04:01.548Z,100785.88
2022-11-16T07:06:30.713Z,100776.44
2022-11-16T07:08:59.456Z,100777.19
2022-11-16T07:11:31.679Z,100777.19
2022-11-16T07:14:00.722Z,100783.53
2022-11-16T07:16:31.278Z,100782.69
2022-11-16T07:19:03.135Z,100781.47
2022-11-16T07:21:33.416Z,100787.88
2022-11-16T07:24:05.712Z,100807.91
2022-11-16T07:26:34.253Z,100801.03
2022-11-16T07:29:08.695Z,100802.56
2022-11-16T07:31:42.618Z,100795.56
2022-11-16T07:34:33.679Z,100806.09
2022-11-16T07:37:06.878Z,100802.03
2022-11-16T07:39:35.076Z,100813.41
2022-11-16T07:42:06.099Z,100824.06
2022-11-16T07:44:51.432Z,100811.72
2022-11-16T07:47:21.611Z,100808.63
2022-11-16T07:49:50.127Z,100816.41
2022-11-16T07:52:21.465Z,100810.31
2022-11-16T07:55:07.543Z,100821.47
2022-11-16T07:57:36.351Z,100815.47
2022-11-16T08:00:09.281Z,100823.34
2022-11-16T08:02:50.131Z,100819.78
2022-11-16T08:05:21.127Z,100816.03
2022-11-16T08:07:51.249Z,100820.13
2022-11-16T08:10:23.268Z,100820.72
2022-11-16T08:12:51.616Z,100811.44
2022-11-16T08:15:21.288Z,100815.19
2022-11-16T08:17:50.825Z,100805.28
2022-11-16T08:20:19.268Z,100808.56
2022-11-16T08:22:49.705Z,100803.59
2022-11-16T08:25:18.269Z,100797.66
2022-11-16T08:27:47.712Z,100800.97
2022-11-16T08:30:18.409Z,100805.28
2022-11-16T08:32:47.021Z,100804.22
2022-11-16T08:35:18.164Z,100791.88
2022-11-16T08:37:46.775Z,100789.59
2022-11-16T08:40:16.512Z,100786.88
2022-11-16T08:42:45.088Z,100783.22
2022-11-16T08:45:14.138Z,100785.19
2022-11-16T08:47:43.099Z,100779.09
2022-11-16T08:50:11.394Z,100772.88
2022-11-16T08:52:41.159Z,100771.78
2022-11-16T08:55:10.274Z,100771.00
2022-11-16T08:57:39.610Z,100772.03
2022-11-16T09:00:13.122Z,100773.38
2022-11-16T09:02:41.273Z,100776.06
2022-11-16T09:05:11.916Z,100769.38
2022-11-16T09:07:43.433Z,100764.44
2022-11-16T09:10:11.856Z,100759.59
2022-11-16T09:12:40.230Z,100758.88
2022-11-16T09:15:09.604Z,100776.13
2022-11-16T09:17:37.772Z,100766.25
2022-11-16T09:20:07.000Z,100768.22
2022-11-16T09:22:35.827Z,100771.78
2022-11-16T09:25:06.260Z,100764.50
2022-11-16T09:27:34.404Z,100758.69
2022-11-16T09:30:02.646Z,100770.06
2022-11-16T09:32:30.911Z,100759.31
2022-11-16T09:34:59.045Z,100751.84
2022-11-16T09:37:27.177Z,100745.13
2022-11-16T09:39:57.736Z,100744.38
2022-11-16T09:42:44.054Z,100739.72
2022-11-16T09:45:20.417Z,100737.22
2022-11-16T09:47:51.043Z,100731.16
2022-11-16T09:50:32.564Z,100731.16
2022-11-16T09:53:07.911Z,100726.00
2022-11-16T09:55:40.758Z,100718.81
2022-11-16T09:58:16.543Z,100713.78
2022-11-16T10:00:52.301Z,100711.94
2022-11-16T10:03:20.459Z,100712.75
2022-11-16T10:05:55.888Z,100704.47
2022-11-16T10:08:30.466Z,100703.88
2022-11-16T10:11:10.816Z,100699.31
2022-11-16T10:13:57.912Z,100689.34
2022-11-16T10:16:38.036Z,100676.56
2022-11-16T10:19:16.955Z,100669.47
2022-11-16T10:21:53.417Z,100646.94
2022-11-16T10:24:33.466Z,100639.06
2022-11-16T10:27:22.175Z,100643.28
2022-11-16T10:30:03.401Z,100637.09
2022-11-16T10:32:33.834Z,100634.31
2022-11-16T10:35:09.112Z,100621.84
2022-11-16T10:37:40.169Z,100616.56
2022-11-16T10:40:19.321Z,100617.69
2022-11-16T10:42:52.471Z,100598.41
2022-11-16T10:45:26.164Z,100598.16
2022-11-16T10:48:01.470Z,100596.81
2022-11-16T10:50:38.540Z,100589.78
2022-11-16T10:53:06.756Z,100573.34
2022-11-16T10:55:34.881Z,100571.56
2022-11-16T10:58:05.092Z,100564.97
2022-11-16T11:00:42.986Z,100557.53
2022-11-16T11:03:12.104Z,100549.44
2022-11-16T11:05:50.780Z,100546.59
2022-11-16T11:08:27.340Z,100534.13
2022-11-16T11:11:01.928Z,100522.50
2022-11-16T11:13:30.464Z,100507.78
2022-11-16T11:16:17.050Z,100505.06
2022-11-16T11:18:45.240Z,100496.91
2022-11-16T11:21:19.048Z,100490.84
2022-11-16T11:23:50.768Z,100473.78
2022-11-16T11:26:36.664Z,100472.84
2022-11-16T11:29:17.697Z,100453.88
2022-11-16T11:31:50.859Z,100445.91
2022-11-16T11:34:22.623Z,100431.94
2022-11-16T11:36:53.653Z,100427.38
2022-11-16T11:39:33.578Z,100411.56
2022-11-16T11:42:07.667Z,100410.16
2022-11-16T11:44:49.193Z,100395.28
2022-11-16T11:47:56.362Z,100390.09
2022-11-16T11:50:20.622Z,100384.38
2022-11-16T11:53:00.380Z,100379.09
2022-11-16T11:55:28.862Z,100372.84
2022-11-16T11:57:57.624Z,100365.16
2022-11-16T12:00:27.025Z,100359.03
2022-11-16T12:03:36.938Z,100353.41
2022-11-16T12:06:20.368Z,100338.53
2022-11-16T12:09:22.514Z,100330.41
2022-11-16T12:12:08.175Z,100323.97
2022-11-16T12:15:33.147Z,100312.31
2022-11-16T12:18:13.994Z,100296.22
2022-11-16T12:20:51.608Z,100295.75
2022-11-16T12:23:36.499Z,100293.22
2022-11-16T12:26:12.027Z,100283.31
2022-11-16T12:28:52.835Z,100278.09
2022-11-16T12:31:38.866Z,100272.06
2022-11-16T12:34:16.991Z,100261.97
2022-11-16T12:36:56.868Z,100255.47
2022-11-16T12:39:28.345Z,100243.78
2022-11-16T12:42:15.327Z,100251.41
2022-11-16T12:45:04.048Z,100248.03
2022-11-16T12:47:45.728Z,100243.41
2022-11-16T12:50:37.934Z,100246.34
2022-11-16T12:53:21.141Z,100237.06
2022-11-16T12:55:56.102Z,100234.66
2022-11-16T12:58:31.671Z,100234.59
2022-11-16T13:01:11.809Z,100223.63
2022-11-16T13:03:46.830Z,100225.41
2022-11-16T13:06:21.662Z,100225.47
2022-11-16T13:08:59.228Z,100224.63
2022-11-16T13:11:32.956Z,100228.69
2022-11-16T13:14:04.927Z,100223.63
2022-11-16T13:16:33.350Z,100222.34
2022-11-16T13:19:04.080Z,100218.59
2022-11-16T13:21:41.927Z,100224.81
2022-11-16T13:24:25.514Z,100213.78
2022-11-16T13:27:05.443Z,100220.53
2022-11-16T13:29:38.628Z,100217.75
2022-11-16T13:32:14.176Z,100199.94
2022-11-16T13:34:42.716Z,100206.66
2022-11-16T13:37:49.438Z,100200.47
2022-11-16T13:40:27.080Z,100204.97
2022-11-16T13:43:17.600Z,100203.59
2022-11-16T13:45:55.472Z,100195.22
2022-11-16T13:48:28.784Z,100195.88
2022-11-16T13:50:59.458Z,100209.06
2022-11-16T13:54:37.867Z,100195.66
2022-11-16T13:56:28.744Z,100193.34
2022-11-16T13:58:59.457Z,100187.91
2022-11-16T14:01:58.505Z,100185.75
2022-11-16T14:04:58.220Z,100186.53
2022-11-16T14:07:47.194Z,100187.16
2022-11-16T14:11:03.044Z,100187.16
2022-11-16T14:13:38.903Z,100194.28
2022-11-16T14:16:32.701Z,100196.13
2022-11-16T14:19:04.093Z,100190.56
2022-11-16T14:21:48.632Z,100190.38
2022-11-16T14:24:28.457Z,100189.06
2022-11-16T14:27:07.999Z,100185.91
2022-11-16T14:29:56.896Z,100185.28
2022-11-16T14:32:28.437Z,100182.28
2022-11-16T14:35:01.487Z,100178.41
2022-11-16T14:37:37.095Z,100178.41
2022-11-16T14:40:11.294Z,100171.50
2022-11-16T14:43:15.230Z,100172.19
2022-11-16T14:45:40.061Z,100165.28
2022-11-16T14:48:17.872Z,100170.31
2022-11-16T14:51:01.415Z,100171.50
2022-11-16T14:53:31.379Z,100180.31
2022-11-16T14:56:18.017Z,100185.28
2022-11-16T14:58:54.284Z,100178.41
2022-11-16T15:01:25.822Z,100170.03
2022-11-16T15:03:58.040Z,100166.47
2022-11-16T15:06:28.059Z,100174.69
2022-11-16T15:09:00.093Z,100169.72
2022-11-16T15:11:45.226Z,100172.66
2022-11-16T15:14:18.835Z,100166.84
2022-11-16T15:16:52.173Z,100172.84
2022-11-16T15:19:21.185Z,100168.88
2022-11-16T15:21:58.548Z,100174.75
2022-11-16T15:24:31.456Z,100172.13
2022-11-16T15:27:11.919Z,100168.47
2022-11-16T15:29:40.180Z,100166.56
2022-11-16T15:32:16.436Z,100162.38
2022-11-16T15:34:48.650Z,100159.66
2022-11-16T15:37:27.818Z,100156.00
2022-11-16T15:39:57.324Z,100157.03
2022-11-16T15:42:27.948Z,100156.19
2022-11-16T15:44:57.040Z,100150.75
2022-11-16T15:47:25.649Z,100156.72
2022-11-16T15:49:55.289Z,100150.22
2022-11-16T15:52:44.142Z,100157.41
2022-11-16T15:55:32.039Z,100152.59
2022-11-16T15:58:03.860Z,100152.59
2022-11-16T16:00:34.762Z,100142.72
2022-11-16T16:03:17.390Z,100145.41
2022-11-16T16:05:45.535Z,100151.53
2022-11-16T16:08:31.139Z,100146.25
2022-11-16T16:11:09.735Z,100153.84
2022-11-16T16:13:40.508Z,100148.28
2022-11-16T16:16:26.057Z,100151.75
2022-11-16T16:18:56.477Z,100150.38
2022-11-16T16:21:26.122Z,100139.44
2022-11-16T16:23:57.118Z,100149.06
2022-11-16T16:26:25.283Z,100148.59
2022-11-16T16:28:53.456Z,100144.94
2022-11-16T16:31:21.620Z,100147.44
2022-11-16T16:33:49.922Z,100140.75
2022-11-16T16:36:18.034Z,100142.19
2022-11-16T16:38:46.377Z,100138.84
2022-11-16T16:41:24.227Z,100141.41
2022-11-16T16:43:52.940Z,100130.63
2022-11-16T16:46:21.763Z,100138.06
2022-11-16T16:48:49.932Z,100133.09
2022-11-16T16:51:18.024Z,100127.53
2022-11-16T16:53:46.166Z,100137.34
2022-11-16T16:56:16.259Z,100138.06
2022-11-16T16:58:45.686Z,100138.66
2022-11-16T17:01:14.105Z,100135.78
2022-11-16T17:03:42.336Z,100134.72
2022-11-16T17:06:10.519Z,100135.56
2022-11-16T17:08:39.498Z,100132.78
2022-11-16T17:11:07.653Z,100132.56
2022-11-16T17:13:35.984Z,100134.28
2022-11-16T17:16:07.068Z,100133.25
2022-11-16T17:18:35.204Z,100132.19
2022-11-16T17:21:07.824Z,100127.69
2022-11-16T17:23:37.757Z,100131.09
2022-11-16T17:26:07.039Z,100133.16
2022-11-16T17:28:35.822Z,100136.28
2022-11-16T17:31:07.055Z,100133.25
2022-11-16T17:33:35.916Z,100136.38
2022-11-16T17:36:05.364Z,100135.72
2022-11-16T17:38:34.335Z,100135.72
2022-11-16T17:41:06.843Z,100129.44
2022-11-16T17:43:36.232Z,100135.34
2022-11-16T17:46:07.864Z,100126.31
2022-11-16T17:48:36.903Z,100129.56
2022-11-16T17:51:05.704Z,100123.56
2022-11-16T17:53:35.120Z,100136.19
2022-11-16T17:56:04.499Z,100136.84
2022-11-16T17:58:32.957Z,100137.91
2022-11-16T18:01:01.360Z,100141.16
2022-11-16T18:03:30.880Z,100141.47
2022-11-16T18:06:04.416Z,100144.09
2022-11-16T18:08:33.136Z,100136.84
2022-11-16T18:11:05.529Z,100143.19
2022-11-16T18:13:34.395Z,100131.41
2022-11-16T18:16:04.363Z,100135.59
2022-11-16T18:18:34.241Z,100143.66
2022-11-16T18:21:02.411Z,100139.16
2022-11-16T18:23:30.515Z,100138.69
2022-11-16T18:25:58.618Z,100142.00
2022-11-16T18:28:26.919Z,100146.03
2022-11-16T18:31:03.277Z,100147.66
2022-11-16T18:33:31.735Z,100144.72
2022-11-16T18:36:01.565Z,100151.97
2022-11-16T18:38:29.692Z,100151.13
2022-11-16T18:41:06.101Z,100158.88
2022-11-16T18:43:35.300Z,100158.78
2022-11-16T18:46:04.021Z,100153.16
2022-11-16T18:48:32.358Z,100159.13
2022-11-16T18:51:02.917Z,100154.59
2022-11-16T18:53:32.885Z,100148.88
2022-11-16T18:56:01.386Z,100157.84
2022-11-16T19:01:19.425Z,100152.59
2022-11-16T19:03:47.660Z,100147.81
2022-11-16T19:06:17.967Z,100158.22
2022-11-16T19:08:55.013Z,100158.28
2022-11-16T19:11:25.078Z,100165.13
2022-11-16T19:13:55.029Z,100153.75
2022-11-16T19:16:24.087Z,100159.50
2022-11-16T19:18:52.223Z,100148.78
2022-11-16T19:21:22.780Z,100152.88
2022-11-16T19:23:52.666Z,100148.06
2022-11-16T19:26:25.600Z,100152.19
2022-11-16T19:28:54.534Z,100144.03
2022-11-16T19:31:24.154Z,100142.00
2022-11-16T19:33:55.047Z,100140.50
2022-11-16T19:36:25.374Z,100155.13
2022-11-16T19:38:54.077Z,100158.03
2022-11-16T19:41:23.103Z,100157.69
2022-11-16T19:43:56.931Z,100156.75
2022-11-16T19:46:25.735Z,100160.75
2022-11-16T19:48:54.305Z,100156.47
2022-11-16T19:51:25.697Z,100161.75
2022-11-16T19:53:54.552Z,100153.13
2022-11-16T19:56:24.193Z,100168.34
2022-11-16T19:58:52.869Z,100167.28
2022-11-16T20:01:23.105Z,100167.16
2022-11-16T20:03:51.423Z,100166.28
2022-11-16T20:06:22.210Z,100172.06
2022-11-16T20:08:53.124Z,100178.38
2022-11-16T20:11:23.339Z,100173.81
2022-11-16T20:13:53.015Z,100165.06
2022-11-16T20:16:23.799Z,100177.53
2022-11-16T20:18:53.250Z,100179.38
2022-11-16T20:21:24.366Z,100181.25
2022-11-16T20:23:55.550Z,100189.78
2022-11-16T20:26:25.018Z,100185.19
2022-11-16T20:28:54.482Z,100181.13
2022-11-16T20:31:24.360Z,100182.41
2022-11-16T20:33:54.194Z,100183.31
2022-11-16T20:36:23.840Z,100188.63
2022-11-16T20:38:53.897Z,100184.31
2022-11-16T20:41:23.995Z,100186.41
2022-11-16T20:43:53.827Z,100185.44
2022-11-16T20:46:23.936Z,100183.78
2022-11-16T20:48:52.789Z,100174.75
2022-11-16T20:51:21.669Z,100178.69
2022-11-16T20:53:50.884Z,100177.91
2022-11-16T20:56:21.385Z,100188.06
2022-11-16T20:58:50.476Z,100200.50
2022-11-16T21:01:20.945Z,100199.22
2022-11-16T21:03:49.175Z,100203.75
2022-11-16T21:06:17.403Z,100197.59
2022-11-16T21:08:46.027Z,100193.50
2022-11-16T21:11:16.078Z,100197.06
2022-11-16T21:14:05.028Z,100200.63
2022-11-16T21:16:33.819Z,100192.94
2022-11-16T21:19:02.819Z,100196.50
2022-11-16T21:21:32.007Z,100198.06
2022-11-16T21:24:00.603Z,100190.44
2022-11-16T21:26:30.389Z,100193.06
2022-11-16T21:29:01.088Z,100190.50
2022-11-16T21:31:31.287Z,100197.69
2022-11-16T21:34:00.736Z,100195.75
2022-11-16T21:36:30.945Z,100188.28
2022-11-16T21:38:59.549Z,100195.31
2022-11-16T21:41:28.506Z,100200.56
2022-11-16T21:43:56.994Z,100192.00
2022-11-16T21:46:27.704Z,100204.34
2022-11-16T21:48:57.128Z,100196.47
2022-11-16T21:51:27.183Z,100194.03
2022-11-16T21:53:56.023Z,100194.16
2022-11-16T21:56:26.000Z,100197.50
2022-11-16T21:58:54.878Z,100202.03
2022-11-16T22:01:24.200Z,100196.72
2022-11-16T22:04:07.740Z,100192.56
2022-11-16T22:06:53.989Z,100194.72
2022-11-16T22:09:22.349Z,100191.97
2022-11-16T22:11:50.534Z,100198.41
2022-11-16T22:14:18.930Z,100192.56
2022-11-16T22:16:47.108Z,100210.88
2022-11-16T22:19:16.615Z,100208.59
2022-11-16T22:21:44.769Z,100204.97
2022-11-16T22:24:12.891Z,100204.97
2022-11-16T22:26:41.229Z,100210.59
2022-11-16T22:29:09.352Z,100210.19
2022-11-16T22:31:37.482Z,100211.34
2022-11-16T22:34:05.615Z,100200.97
2022-11-16T22:36:35.065Z,100207.91
2022-11-16T22:39:03.235Z,100209.22
2022-11-16T22:41:31.454Z,100215.34
2022-11-16T22:43:59.654Z,100217.22
2022-11-16T22:46:27.793Z,100218.34
2022-11-16T22:48:55.931Z,100213.66
2022-11-16T22:51:26.039Z,100214.50
2022-11-16T22:53:56.413Z,100209.81
2022-11-16T22:56:25.569Z,100220.19
2022-11-16T22:58:54.326Z,100218.72
2022-11-16T23:01:22.616Z,100214.25
2022-11-16T23:03:51.429Z,100215.19
2022-11-16T23:06:19.632Z,100207.69
2022-11-16T23:08:48.666Z,100216.44
2022-11-16T23:11:38.136Z,100212.81
2022-11-16T23:14:25.892Z,100213.47
2022-11-16T23:16:54.111Z,100198.06
2022-11-16T23:19:40.829Z,100196.88
2022-11-16T23:22:32.064Z,100198.09
2022-11-16T23:25:18.076Z,100191.34
2022-11-16T23:27:55.700Z,100193.03
2022-11-16T23:30:24.239Z,100187.69
2022-11-16T23:32:53.635Z,100190.91
2022-11-16T23:35:21.854Z,100191.25
2022-11-16T23:37:56.764Z,100182.56
2022-11-16T23:40:26.998Z,100181.03
2022-11-16T23:43:14.564Z,100180.13
2022-11-16T23:45:43.478Z,100173.28
2022-11-16T23:48:13.367Z,100175.00
2022-11-16T23:50:42.076Z,100168.78
2022-11-16T23:53:11.452Z,100174.91
2022-11-16T23:55:40.915Z,100170.75
2022-11-16T23:58:13.687Z,100166.28
